sensor_id;sensor_type;location;lat;lon;timestamp;P1;durP1;ratioP1;P2;durP2;ratioP2
75218;SDS011;63801;49.414;19.474;2023-03-14T00:01:42;7.53;;;3.00;;
75218;SDS011;63801;49.414;19.474;2023-03-14T00:03:44;5.38;;;2.70;;
75218;SDS011;63801;49.414;19.474;2023-03-14T00:05:44;6.13;;;2.85;;
75218;SDS011;63801;49.414;19.474;2023-03-14T00:07:44;6.25;;;2.92;;
75218;SDS011;63801;49.414;19.474;2023-03-14T00:09:44;12.23;;;3.05;;
75218;SDS011;63801;49.414;19.474;2023-03-14T00:11:45;8.27;;;3.95;;
75218;SDS011;63801;49.414;19.474;2023-03-14T00:13:49;9.07;;;3.53;;
75218;SDS011;63801;49.414;19.474;2023-03-14T00:15:51;6.65;;;3.08;;
75218;SDS011;63801;49.414;19.474;2023-03-14T00:17:51;7.53;;;2.83;;
75218;SDS011;63801;49.414;19.474;2023-03-14T00:19:51;4.80;;;2.58;;
75218;SDS011;63801;49.414;19.474;2023-03-14T00:21:53;5.75;;;2.63;;
75218;SDS011;63801;49.414;19.474;2023-03-14T00:23:54;6.20;;;3.47;;
75218;SDS011;63801;49.414;19.474;2023-03-14T00:25:58;8.38;;;3.25;;
75218;SDS011;63801;49.414;19.474;2023-03-14T00:28:02;6.78;;;3.00;;
75218;SDS011;63801;49.414;19.474;2023-03-14T00:30:03;6.35;;;2.60;;
75218;SDS011;63801;49.414;19.474;2023-03-14T00:32:04;5.22;;;2.58;;
75218;SDS011;63801;49.414;19.474;2023-03-14T00:34:05;8.05;;;3.33;;
75218;SDS011;63801;49.414;19.474;2023-03-14T00:36:07;6.00;;;2.90;;
75218;SDS011;63801;49.414;19.474;2023-03-14T00:38:09;6.30;;;3.08;;
75218;SDS011;63801;49.414;19.474;2023-03-14T00:40:09;8.77;;;2.88;;
75218;SDS011;63801;49.414;19.474;2023-03-14T00:42:10;8.77;;;3.30;;
75218;SDS011;63801;49.414;19.474;2023-03-14T00:44:10;5.50;;;2.67;;
75218;SDS011;63801;49.414;19.474;2023-03-14T00:46:11;7.13;;;2.70;;
75218;SDS011;63801;49.414;19.474;2023-03-14T00:48:12;6.05;;;2.90;;
75218;SDS011;63801;49.414;19.474;2023-03-14T00:50:13;7.82;;;3.50;;
75218;SDS011;63801;49.414;19.474;2023-03-14T00:52:13;4.82;;;2.58;;
75218;SDS011;63801;49.414;19.474;2023-03-14T00:54:14;6.85;;;3.15;;
75218;SDS011;63801;49.414;19.474;2023-03-14T00:56:14;5.57;;;3.08;;
75218;SDS011;63801;49.414;19.474;2023-03-14T00:58:15;7.30;;;2.88;;
75218;SDS011;63801;49.414;19.474;2023-03-14T01:00:17;7.38;;;2.88;;
75218;SDS011;63801;49.414;19.474;2023-03-14T01:02:18;8.15;;;3.03;;
75218;SDS011;63801;49.414;19.474;2023-03-14T01:04:18;6.65;;;3.20;;
75218;SDS011;63801;49.414;19.474;2023-03-14T01:06:25;6.60;;;3.10;;
75218;SDS011;63801;49.414;19.474;2023-03-14T01:08:27;8.52;;;3.58;;
75218;SDS011;63801;49.414;19.474;2023-03-14T01:10:27;7.07;;;2.90;;
75218;SDS011;63801;49.414;19.474;2023-03-14T01:12:27;7.47;;;3.20;;
75218;SDS011;63801;49.414;19.474;2023-03-14T01:14:28;7.45;;;3.33;;
75218;SDS011;63801;49.414;19.474;2023-03-14T01:16:29;7.05;;;3.08;;
75218;SDS011;63801;49.414;19.474;2023-03-14T01:18:32;7.82;;;3.22;;
75218;SDS011;63801;49.414;19.474;2023-03-14T01:20:33;6.07;;;2.90;;
75218;SDS011;63801;49.414;19.474;2023-03-14T01:22:33;5.38;;;3.10;;
75218;SDS011;63801;49.414;19.474;2023-03-14T01:24:33;5.63;;;2.92;;
75218;SDS011;63801;49.414;19.474;2023-03-14T01:26:34;7.32;;;2.75;;
75218;SDS011;63801;49.414;19.474;2023-03-14T01:28:35;7.13;;;3.40;;
75218;SDS011;63801;49.414;19.474;2023-03-14T01:30:35;5.50;;;2.72;;
75218;SDS011;63801;49.414;19.474;2023-03-14T01:32:36;7.72;;;3.30;;
75218;SDS011;63801;49.414;19.474;2023-03-14T01:34:36;7.97;;;3.13;;
75218;SDS011;63801;49.414;19.474;2023-03-14T01:36:37;7.68;;;3.30;;
75218;SDS011;63801;49.414;19.474;2023-03-14T01:38:38;6.43;;;2.88;;
75218;SDS011;63801;49.414;19.474;2023-03-14T01:40:43;6.40;;;2.78;;
75218;SDS011;63801;49.414;19.474;2023-03-14T01:42:46;7.05;;;3.00;;
75218;SDS011;63801;49.414;19.474;2023-03-14T01:44:58;7.55;;;2.85;;
75218;SDS011;63801;49.414;19.474;2023-03-14T01:53:29;4.53;;;2.30;;
75218;SDS011;63801;49.414;19.474;2023-03-14T01:55:29;4.90;;;2.17;;
75218;SDS011;63801;49.414;19.474;2023-03-14T01:57:31;6.88;;;2.50;;
75218;SDS011;63801;49.414;19.474;2023-03-14T01:59:36;7.10;;;2.50;;
75218;SDS011;63801;49.414;19.474;2023-03-14T02:01:40;3.40;;;1.95;;
75218;SDS011;63801;49.414;19.474;2023-03-14T02:03:47;5.35;;;2.42;;
75218;SDS011;63801;49.414;19.474;2023-03-14T02:05:52;4.93;;;2.25;;
75218;SDS011;63801;49.414;19.474;2023-03-14T02:07:57;6.88;;;2.58;;
75218;SDS011;63801;49.414;19.474;2023-03-14T02:09:58;4.27;;;2.27;;
75218;SDS011;63801;49.414;19.474;2023-03-14T02:12:01;6.70;;;2.33;;
75218;SDS011;63801;49.414;19.474;2023-03-14T02:14:01;4.55;;;2.15;;
75218;SDS011;63801;49.414;19.474;2023-03-14T02:16:03;7.03;;;2.20;;
75218;SDS011;63801;49.414;19.474;2023-03-14T02:18:04;7.55;;;2.33;;
75218;SDS011;63801;49.414;19.474;2023-03-14T02:22:31;4.45;;;1.88;;
75218;SDS011;63801;49.414;19.474;2023-03-14T02:24:38;5.03;;;2.15;;
75218;SDS011;63801;49.414;19.474;2023-03-14T02:29:02;3.80;;;1.95;;
75218;SDS011;63801;49.414;19.474;2023-03-14T02:31:03;6.95;;;2.20;;
75218;SDS011;63801;49.414;19.474;2023-03-14T02:35:12;3.95;;;1.98;;
75218;SDS011;63801;49.414;19.474;2023-03-14T02:37:16;3.95;;;1.70;;
75218;SDS011;63801;49.414;19.474;2023-03-14T02:39:24;2.58;;;1.67;;
75218;SDS011;63801;49.414;19.474;2023-03-14T02:41:32;5.03;;;2.03;;
75218;SDS011;63801;49.414;19.474;2023-03-14T02:43:33;7.70;;;1.60;;
75218;SDS011;63801;49.414;19.474;2023-03-14T02:45:38;5.85;;;1.75;;
75218;SDS011;63801;49.414;19.474;2023-03-14T02:47:43;5.68;;;2.00;;
75218;SDS011;63801;49.414;19.474;2023-03-14T02:49:47;7.53;;;2.20;;
75218;SDS011;63801;49.414;19.474;2023-03-14T02:51:47;6.40;;;1.98;;
75218;SDS011;63801;49.414;19.474;2023-03-14T02:53:48;3.67;;;1.90;;
75218;SDS011;63801;49.414;19.474;2023-03-14T02:55:48;4.75;;;1.92;;
75218;SDS011;63801;49.414;19.474;2023-03-14T02:57:49;7.30;;;2.47;;
75218;SDS011;63801;49.414;19.474;2023-03-14T02:59:50;6.53;;;1.95;;
75218;SDS011;63801;49.414;19.474;2023-03-14T03:01:50;6.80;;;1.70;;
75218;SDS011;63801;49.414;19.474;2023-03-14T03:03:51;3.40;;;1.60;;
75218;SDS011;63801;49.414;19.474;2023-03-14T03:05:52;5.03;;;2.10;;
75218;SDS011;63801;49.414;19.474;2023-03-14T03:09:54;8.48;;;2.40;;
75218;SDS011;63801;49.414;19.474;2023-03-14T03:11:54;5.55;;;1.73;;
75218;SDS011;63801;49.414;19.474;2023-03-14T03:13:55;5.60;;;2.00;;
75218;SDS011;63801;49.414;19.474;2023-03-14T03:15:55;5.40;;;1.90;;
75218;SDS011;63801;49.414;19.474;2023-03-14T03:17:55;5.88;;;2.10;;
75218;SDS011;63801;49.414;19.474;2023-03-14T03:19:55;6.82;;;2.00;;
75218;SDS011;63801;49.414;19.474;2023-03-14T03:21:56;4.82;;;1.70;;
75218;SDS011;63801;49.414;19.474;2023-03-14T03:23:57;5.47;;;1.98;;
75218;SDS011;63801;49.414;19.474;2023-03-14T03:25:58;5.72;;;1.85;;
75218;SDS011;63801;49.414;19.474;2023-03-14T03:27:58;3.10;;;1.40;;
75218;SDS011;63801;49.414;19.474;2023-03-14T03:29:58;8.25;;;1.90;;
75218;SDS011;63801;49.414;19.474;2023-03-14T03:31:59;4.97;;;1.85;;
75218;SDS011;63801;49.414;19.474;2023-03-14T03:33:59;4.78;;;1.70;;
75218;SDS011;63801;49.414;19.474;2023-03-14T03:35:59;5.57;;;2.00;;
75218;SDS011;63801;49.414;19.474;2023-03-14T03:37:59;5.22;;;1.73;;
75218;SDS011;63801;49.414;19.474;2023-03-14T03:40:00;4.50;;;1.77;;
75218;SDS011;63801;49.414;19.474;2023-03-14T03:42:00;5.10;;;2.10;;
75218;SDS011;63801;49.414;19.474;2023-03-14T03:44:01;5.03;;;2.10;;
75218;SDS011;63801;49.414;19.474;2023-03-14T03:46:04;6.13;;;2.00;;
75218;SDS011;63801;49.414;19.474;2023-03-14T03:48:05;7.30;;;2.35;;
75218;SDS011;63801;49.414;19.474;2023-03-14T03:50:06;6.63;;;2.40;;
75218;SDS011;63801;49.414;19.474;2023-03-14T03:52:06;6.32;;;2.25;;
75218;SDS011;63801;49.414;19.474;2023-03-14T03:54:07;5.97;;;2.13;;
75218;SDS011;63801;49.414;19.474;2023-03-14T03:56:08;5.18;;;2.17;;
75218;SDS011;63801;49.414;19.474;2023-03-14T03:58:08;6.38;;;2.30;;
75218;SDS011;63801;49.414;19.474;2023-03-14T04:00:09;3.80;;;2.05;;
75218;SDS011;63801;49.414;19.474;2023-03-14T04:02:12;7.53;;;2.40;;
75218;SDS011;63801;49.414;19.474;2023-03-14T04:04:12;5.05;;;2.20;;
75218;SDS011;63801;49.414;19.474;2023-03-14T04:06:13;9.82;;;2.30;;
75218;SDS011;63801;49.414;19.474;2023-03-14T04:08:13;5.25;;;2.22;;
75218;SDS011;63801;49.414;19.474;2023-03-14T04:10:14;4.88;;;2.47;;
75218;SDS011;63801;49.414;19.474;2023-03-14T04:12:14;4.10;;;2.05;;
75218;SDS011;63801;49.414;19.474;2023-03-14T04:14:15;4.82;;;2.17;;
75218;SDS011;63801;49.414;19.474;2023-03-14T04:16:19;4.93;;;2.10;;
75218;SDS011;63801;49.414;19.474;2023-03-14T04:18:22;7.50;;;2.75;;
75218;SDS011;63801;49.414;19.474;2023-03-14T04:20:24;6.03;;;2.28;;
75218;SDS011;63801;49.414;19.474;2023-03-14T04:22:25;7.32;;;2.70;;
75218;SDS011;63801;49.414;19.474;2023-03-14T04:24:25;10.35;;;2.67;;
75218;SDS011;63801;49.414;19.474;2023-03-14T04:26:25;6.30;;;2.80;;
75218;SDS011;63801;49.414;19.474;2023-03-14T04:28:26;4.85;;;2.67;;
75218;SDS011;63801;49.414;19.474;2023-03-14T04:30:26;9.95;;;4.13;;
75218;SDS011;63801;49.414;19.474;2023-03-14T04:32:26;6.65;;;3.05;;
75218;SDS011;63801;49.414;19.474;2023-03-14T04:34:27;8.15;;;2.60;;
75218;SDS011;63801;49.414;19.474;2023-03-14T04:36:27;10.52;;;3.70;;
75218;SDS011;63801;49.414;19.474;2023-03-14T04:38:27;7.35;;;3.25;;
75218;SDS011;63801;49.414;19.474;2023-03-14T04:40:27;8.02;;;4.00;;
75218;SDS011;63801;49.414;19.474;2023-03-14T04:42:28;7.55;;;3.30;;
75218;SDS011;63801;49.414;19.474;2023-03-14T04:44:28;7.03;;;2.92;;
75218;SDS011;63801;49.414;19.474;2023-03-14T04:46:28;7.97;;;3.10;;
75218;SDS011;63801;49.414;19.474;2023-03-14T04:48:29;7.50;;;3.22;;
75218;SDS011;63801;49.414;19.474;2023-03-14T04:50:29;9.02;;;4.22;;
75218;SDS011;63801;49.414;19.474;2023-03-14T04:52:30;9.48;;;4.43;;
75218;SDS011;63801;49.414;19.474;2023-03-14T04:54:30;6.97;;;3.13;;
75218;SDS011;63801;49.414;19.474;2023-03-14T04:56:30;6.97;;;3.33;;
75218;SDS011;63801;49.414;19.474;2023-03-14T04:58:31;7.18;;;3.50;;
75218;SDS011;63801;49.414;19.474;2023-03-14T05:00:31;8.57;;;4.20;;
75218;SDS011;63801;49.414;19.474;2023-03-14T05:02:32;13.60;;;5.07;;
75218;SDS011;63801;49.414;19.474;2023-03-14T05:04:32;22.20;;;7.80;;
75218;SDS011;63801;49.414;19.474;2023-03-14T05:06:33;13.23;;;5.72;;
75218;SDS011;63801;49.414;19.474;2023-03-14T05:08:34;6.90;;;2.95;;
75218;SDS011;63801;49.414;19.474;2023-03-14T05:10:35;8.52;;;3.80;;
75218;SDS011;63801;49.414;19.474;2023-03-14T05:12:35;9.05;;;3.88;;
75218;SDS011;63801;49.414;19.474;2023-03-14T05:14:36;11.30;;;3.67;;
75218;SDS011;63801;49.414;19.474;2023-03-14T05:16:36;9.55;;;3.78;;
75218;SDS011;63801;49.414;19.474;2023-03-14T05:18:36;12.60;;;4.22;;
75218;SDS011;63801;49.414;19.474;2023-03-14T05:20:37;6.45;;;3.50;;
75218;SDS011;63801;49.414;19.474;2023-03-14T05:22:38;11.73;;;4.55;;
75218;SDS011;63801;49.414;19.474;2023-03-14T05:24:39;8.55;;;3.75;;
75218;SDS011;63801;49.414;19.474;2023-03-14T05:26:39;8.80;;;3.55;;
75218;SDS011;63801;49.414;19.474;2023-03-14T05:28:40;7.20;;;3.63;;
75218;SDS011;63801;49.414;19.474;2023-03-14T05:30:40;8.93;;;4.00;;
75218;SDS011;63801;49.414;19.474;2023-03-14T05:32:40;7.82;;;3.58;;
75218;SDS011;63801;49.414;19.474;2023-03-14T05:34:41;8.55;;;3.78;;
75218;SDS011;63801;49.414;19.474;2023-03-14T05:36:41;7.00;;;3.70;;
75218;SDS011;63801;49.414;19.474;2023-03-14T05:38:41;6.80;;;3.30;;
75218;SDS011;63801;49.414;19.474;2023-03-14T05:40:42;9.80;;;4.10;;
75218;SDS011;63801;49.414;19.474;2023-03-14T05:42:42;8.60;;;4.03;;
75218;SDS011;63801;49.414;19.474;2023-03-14T05:44:42;8.80;;;3.35;;
75218;SDS011;63801;49.414;19.474;2023-03-14T05:46:42;8.40;;;3.63;;
75218;SDS011;63801;49.414;19.474;2023-03-14T05:48:43;7.55;;;3.80;;
75218;SDS011;63801;49.414;19.474;2023-03-14T05:50:43;7.75;;;3.47;;
75218;SDS011;63801;49.414;19.474;2023-03-14T05:52:44;7.72;;;3.88;;
75218;SDS011;63801;49.414;19.474;2023-03-14T05:54:44;11.05;;;4.68;;
75218;SDS011;63801;49.414;19.474;2023-03-14T05:56:44;8.98;;;3.70;;
75218;SDS011;63801;49.414;19.474;2023-03-14T05:58:45;7.05;;;3.45;;
75218;SDS011;63801;49.414;19.474;2023-03-14T06:00:45;6.15;;;3.35;;
75218;SDS011;63801;49.414;19.474;2023-03-14T06:02:45;8.40;;;3.17;;
75218;SDS011;63801;49.414;19.474;2023-03-14T06:04:46;7.88;;;3.22;;
75218;SDS011;63801;49.414;19.474;2023-03-14T06:06:46;5.68;;;3.03;;
75218;SDS011;63801;49.414;19.474;2023-03-14T06:08:46;5.47;;;3.15;;
75218;SDS011;63801;49.414;19.474;2023-03-14T06:10:47;7.63;;;2.92;;
75218;SDS011;63801;49.414;19.474;2023-03-14T06:12:48;9.57;;;3.50;;
75218;SDS011;63801;49.414;19.474;2023-03-14T06:14:48;8.80;;;3.80;;
75218;SDS011;63801;49.414;19.474;2023-03-14T06:16:49;8.68;;;3.30;;
75218;SDS011;63801;49.414;19.474;2023-03-14T06:18:50;7.18;;;3.33;;
75218;SDS011;63801;49.414;19.474;2023-03-14T06:20:55;9.95;;;3.80;;
75218;SDS011;63801;49.414;19.474;2023-03-14T06:22:56;5.80;;;3.10;;
75218;SDS011;63801;49.414;19.474;2023-03-14T06:24:56;6.18;;;3.08;;
75218;SDS011;63801;49.414;19.474;2023-03-14T06:26:57;6.75;;;3.13;;
75218;SDS011;63801;49.414;19.474;2023-03-14T06:28:57;9.93;;;3.13;;
75218;SDS011;63801;49.414;19.474;2023-03-14T06:31:01;5.78;;;2.75;;
75218;SDS011;63801;49.414;19.474;2023-03-14T06:33:01;7.28;;;3.20;;
75218;SDS011;63801;49.414;19.474;2023-03-14T06:35:01;5.43;;;2.65;;
75218;SDS011;63801;49.414;19.474;2023-03-14T06:37:02;6.20;;;2.83;;
75218;SDS011;63801;49.414;19.474;2023-03-14T06:39:02;12.32;;;3.47;;
75218;SDS011;63801;49.414;19.474;2023-03-14T06:41:06;5.00;;;2.83;;
75218;SDS011;63801;49.414;19.474;2023-03-14T06:43:07;6.90;;;3.33;;
75218;SDS011;63801;49.414;19.474;2023-03-14T06:45:07;10.23;;;3.17;;
75218;SDS011;63801;49.414;19.474;2023-03-14T06:47:08;6.40;;;2.78;;
75218;SDS011;63801;49.414;19.474;2023-03-14T06:49:08;12.10;;;3.35;;
75218;SDS011;63801;49.414;19.474;2023-03-14T06:51:09;9.15;;;2.75;;
75218;SDS011;63801;49.414;19.474;2023-03-14T06:53:09;5.97;;;2.50;;
75218;SDS011;63801;49.414;19.474;2023-03-14T06:55:09;6.57;;;2.45;;
75218;SDS011;63801;49.414;19.474;2023-03-14T06:57:10;5.47;;;2.95;;
75218;SDS011;63801;49.414;19.474;2023-03-14T06:59:10;6.05;;;2.90;;
75218;SDS011;63801;49.414;19.474;2023-03-14T07:01:17;6.85;;;3.10;;
75218;SDS011;63801;49.414;19.474;2023-03-14T07:03:22;9.68;;;2.92;;
75218;SDS011;63801;49.414;19.474;2023-03-14T07:05:22;10.07;;;3.35;;
75218;SDS011;63801;49.414;19.474;2023-03-14T07:07:23;9.15;;;3.47;;
75218;SDS011;63801;49.414;19.474;2023-03-14T07:09:23;7.68;;;3.33;;
75218;SDS011;63801;49.414;19.474;2023-03-14T07:11:23;6.40;;;3.58;;
75218;SDS011;63801;49.414;19.474;2023-03-14T07:13:24;9.25;;;3.65;;
75218;SDS011;63801;49.414;19.474;2023-03-14T07:15:24;10.40;;;4.28;;
75218;SDS011;63801;49.414;19.474;2023-03-14T07:17:25;11.00;;;3.95;;
75218;SDS011;63801;49.414;19.474;2023-03-14T07:19:25;6.68;;;3.40;;
75218;SDS011;63801;49.414;19.474;2023-03-14T07:21:25;7.20;;;3.67;;
75218;SDS011;63801;49.414;19.474;2023-03-14T07:23:26;9.82;;;3.92;;
75218;SDS011;63801;49.414;19.474;2023-03-14T07:25:26;10.45;;;4.30;;
75218;SDS011;63801;49.414;19.474;2023-03-14T07:27:27;13.05;;;4.28;;
75218;SDS011;63801;49.414;19.474;2023-03-14T07:29:27;7.93;;;3.70;;
75218;SDS011;63801;49.414;19.474;2023-03-14T07:31:27;7.35;;;3.53;;
75218;SDS011;63801;49.414;19.474;2023-03-14T07:33:27;12.30;;;4.28;;
75218;SDS011;63801;49.414;19.474;2023-03-14T07:35:28;11.63;;;3.67;;
75218;SDS011;63801;49.414;19.474;2023-03-14T07:37:28;9.50;;;3.55;;
75218;SDS011;63801;49.414;19.474;2023-03-14T07:39:28;8.52;;;3.30;;
75218;SDS011;63801;49.414;19.474;2023-03-14T07:41:29;6.53;;;3.33;;
75218;SDS011;63801;49.414;19.474;2023-03-14T07:43:30;12.80;;;4.07;;
75218;SDS011;63801;49.414;19.474;2023-03-14T07:45:30;11.82;;;3.60;;
75218;SDS011;63801;49.414;19.474;2023-03-14T07:47:30;13.13;;;3.45;;
75218;SDS011;63801;49.414;19.474;2023-03-14T07:49:31;8.68;;;3.35;;
75218;SDS011;63801;49.414;19.474;2023-03-14T07:51:31;13.10;;;3.28;;
75218;SDS011;63801;49.414;19.474;2023-03-14T07:53:31;8.65;;;3.20;;
75218;SDS011;63801;49.414;19.474;2023-03-14T07:55:32;22.25;;;3.78;;
75218;SDS011;63801;49.414;19.474;2023-03-14T07:57:32;8.68;;;3.33;;
75218;SDS011;63801;49.414;19.474;2023-03-14T07:59:32;5.70;;;3.08;;
75218;SDS011;63801;49.414;19.474;2023-03-14T08:01:33;12.43;;;4.38;;
75218;SDS011;63801;49.414;19.474;2023-03-14T08:03:33;6.93;;;3.70;;
75218;SDS011;63801;49.414;19.474;2023-03-14T08:05:34;9.15;;;4.30;;
75218;SDS011;63801;49.414;19.474;2023-03-14T08:07:35;8.35;;;3.60;;
75218;SDS011;63801;49.414;19.474;2023-03-14T08:09:36;12.95;;;3.90;;
75218;SDS011;63801;49.414;19.474;2023-03-14T08:11:36;9.07;;;3.80;;
75218;SDS011;63801;49.414;19.474;2023-03-14T08:13:37;7.28;;;3.63;;
75218;SDS011;63801;49.414;19.474;2023-03-14T08:15:38;10.32;;;3.90;;
75218;SDS011;63801;49.414;19.474;2023-03-14T08:17:38;8.10;;;4.00;;
75218;SDS011;63801;49.414;19.474;2023-03-14T08:19:40;7.72;;;3.75;;
75218;SDS011;63801;49.414;19.474;2023-03-14T08:21:41;7.05;;;3.45;;
75218;SDS011;63801;49.414;19.474;2023-03-14T08:23:41;9.23;;;4.38;;
75218;SDS011;63801;49.414;19.474;2023-03-14T08:25:42;8.15;;;4.05;;
75218;SDS011;63801;49.414;19.474;2023-03-14T08:27:43;7.20;;;3.80;;
75218;SDS011;63801;49.414;19.474;2023-03-14T08:29:43;8.20;;;3.55;;
75218;SDS011;63801;49.414;19.474;2023-03-14T08:31:44;6.93;;;3.40;;
75218;SDS011;63801;49.414;19.474;2023-03-14T08:33:44;7.10;;;3.50;;
75218;SDS011;63801;49.414;19.474;2023-03-14T08:35:44;11.40;;;4.22;;
75218;SDS011;63801;49.414;19.474;2023-03-14T08:37:45;9.98;;;4.00;;
75218;SDS011;63801;49.414;19.474;2023-03-14T08:39:45;7.18;;;3.72;;
75218;SDS011;63801;49.414;19.474;2023-03-14T08:41:45;9.82;;;3.90;;
75218;SDS011;63801;49.414;19.474;2023-03-14T08:43:46;9.65;;;4.22;;
75218;SDS011;63801;49.414;19.474;2023-03-14T08:45:46;7.80;;;4.15;;
75218;SDS011;63801;49.414;19.474;2023-03-14T08:47:46;7.05;;;3.85;;
75218;SDS011;63801;49.414;19.474;2023-03-14T08:49:47;6.97;;;3.47;;
75218;SDS011;63801;49.414;19.474;2023-03-14T08:51:47;9.15;;;4.35;;
75218;SDS011;63801;49.414;19.474;2023-03-14T08:53:48;7.15;;;3.45;;
75218;SDS011;63801;49.414;19.474;2023-03-14T08:55:54;12.43;;;4.47;;
75218;SDS011;63801;49.414;19.474;2023-03-14T08:57:54;8.00;;;3.97;;
75218;SDS011;63801;49.414;19.474;2023-03-14T08:59:56;9.20;;;4.47;;
75218;SDS011;63801;49.414;19.474;2023-03-14T09:01:56;8.02;;;4.15;;
75218;SDS011;63801;49.414;19.474;2023-03-14T09:03:57;10.60;;;4.90;;
75218;SDS011;63801;49.414;19.474;2023-03-14T09:06:01;8.48;;;4.57;;
75218;SDS011;63801;49.414;19.474;2023-03-14T09:08:03;6.75;;;3.72;;
75218;SDS011;63801;49.414;19.474;2023-03-14T09:10:04;8.52;;;4.10;;
75218;SDS011;63801;49.414;19.474;2023-03-14T09:12:05;10.38;;;4.57;;
75218;SDS011;63801;49.414;19.474;2023-03-14T09:14:05;9.40;;;4.22;;
75218;SDS011;63801;49.414;19.474;2023-03-14T09:16:06;12.32;;;4.65;;
75218;SDS011;63801;49.414;19.474;2023-03-14T09:18:07;9.50;;;4.45;;
75218;SDS011;63801;49.414;19.474;2023-03-14T09:20:08;7.47;;;4.18;;
75218;SDS011;63801;49.414;19.474;2023-03-14T09:22:09;7.45;;;4.03;;
75218;SDS011;63801;49.414;19.474;2023-03-14T09:24:09;9.48;;;5.03;;
75218;SDS011;63801;49.414;19.474;2023-03-14T09:26:09;8.48;;;3.85;;
75218;SDS011;63801;49.414;19.474;2023-03-14T09:28:10;7.00;;;3.90;;
75218;SDS011;63801;49.414;19.474;2023-03-14T09:30:10;7.78;;;4.28;;
75218;SDS011;63801;49.414;19.474;2023-03-14T09:32:11;6.97;;;4.10;;
75218;SDS011;63801;49.414;19.474;2023-03-14T09:34:11;7.97;;;4.22;;
75218;SDS011;63801;49.414;19.474;2023-03-14T09:36:11;8.05;;;3.67;;
75218;SDS011;63801;49.414;19.474;2023-03-14T09:38:13;7.97;;;4.47;;
75218;SDS011;63801;49.414;19.474;2023-03-14T09:40:14;8.13;;;4.22;;
75218;SDS011;63801;49.414;19.474;2023-03-14T09:42:17;8.30;;;3.90;;
75218;SDS011;63801;49.414;19.474;2023-03-14T09:44:29;7.30;;;3.97;;
75218;SDS011;63801;49.414;19.474;2023-03-14T09:46:32;9.35;;;3.47;;
75218;SDS011;63801;49.414;19.474;2023-03-14T09:48:37;9.40;;;4.00;;
75218;SDS011;63801;49.414;19.474;2023-03-14T09:50:39;10.57;;;4.32;;
75218;SDS011;63801;49.414;19.474;2023-03-14T09:52:45;9.57;;;3.80;;
75218;SDS011;63801;49.414;19.474;2023-03-14T09:54:50;10.52;;;3.83;;
75218;SDS011;63801;49.414;19.474;2023-03-14T09:56:52;9.52;;;3.80;;
75218;SDS011;63801;49.414;19.474;2023-03-14T09:59:01;7.30;;;4.00;;
75218;SDS011;63801;49.414;19.474;2023-03-14T10:01:04;8.45;;;3.85;;
75218;SDS011;63801;49.414;19.474;2023-03-14T10:05:19;7.57;;;3.95;;
75218;SDS011;63801;49.414;19.474;2023-03-14T10:07:28;8.02;;;3.63;;
75218;SDS011;63801;49.414;19.474;2023-03-14T10:09:32;7.97;;;4.15;;
75218;SDS011;63801;49.414;19.474;2023-03-14T10:11:33;6.70;;;4.32;;
75218;SDS011;63801;49.414;19.474;2023-03-14T10:13:33;9.10;;;4.07;;
75218;SDS011;63801;49.414;19.474;2023-03-14T10:15:34;9.10;;;3.58;;
75218;SDS011;63801;49.414;19.474;2023-03-14T10:17:39;7.22;;;3.95;;
75218;SDS011;63801;49.414;19.474;2023-03-14T10:19:56;13.75;;;4.53;;
75218;SDS011;63801;49.414;19.474;2023-03-14T10:22:00;9.52;;;4.07;;
75218;SDS011;63801;49.414;19.474;2023-03-14T10:24:08;7.93;;;4.10;;
75218;SDS011;63801;49.414;19.474;2023-03-14T10:26:12;6.93;;;3.85;;
75218;SDS011;63801;49.414;19.474;2023-03-14T10:28:25;7.80;;;3.95;;
75218;SDS011;63801;49.414;19.474;2023-03-14T10:30:45;6.47;;;4.28;;
75218;SDS011;63801;49.414;19.474;2023-03-14T10:32:46;7.88;;;3.97;;
75218;SDS011;63801;49.414;19.474;2023-03-14T10:34:46;11.27;;;4.50;;
75218;SDS011;63801;49.414;19.474;2023-03-14T10:37:24;10.57;;;4.40;;
75218;SDS011;63801;49.414;19.474;2023-03-14T10:39:29;7.72;;;4.53;;
75218;SDS011;63801;49.414;19.474;2023-03-14T10:41:34;12.35;;;4.63;;
75218;SDS011;63801;49.414;19.474;2023-03-14T10:43:35;6.80;;;3.75;;
75218;SDS011;63801;49.414;19.474;2023-03-14T10:45:37;8.15;;;3.78;;
75218;SDS011;63801;49.414;19.474;2023-03-14T10:47:46;9.00;;;4.00;;
75218;SDS011;63801;49.414;19.474;2023-03-14T10:49:48;8.95;;;4.03;;
75218;SDS011;63801;49.414;19.474;2023-03-14T10:51:49;10.20;;;4.60;;
75218;SDS011;63801;49.414;19.474;2023-03-14T10:53:55;9.30;;;4.57;;
75218;SDS011;63801;49.414;19.474;2023-03-14T10:56:02;7.22;;;3.53;;
75218;SDS011;63801;49.414;19.474;2023-03-14T10:58:03;12.05;;;5.13;;
75218;SDS011;63801;49.414;19.474;2023-03-14T11:00:03;8.00;;;4.28;;
75218;SDS011;63801;49.414;19.474;2023-03-14T11:11:36;8.82;;;4.15;;
75218;SDS011;63801;49.414;19.474;2023-03-14T11:13:52;10.88;;;4.60;;
75218;SDS011;63801;49.414;19.474;2023-03-14T11:21:05;9.65;;;5.05;;
75218;SDS011;63801;49.414;19.474;2023-03-14T11:27:47;8.82;;;4.32;;
75218;SDS011;63801;49.414;19.474;2023-03-14T11:30:06;10.63;;;5.40;;
75218;SDS011;63801;49.414;19.474;2023-03-14T11:34:50;8.35;;;4.60;;
75218;SDS011;63801;49.414;19.474;2023-03-14T11:36:59;10.43;;;4.43;;
75218;SDS011;63801;49.414;19.474;2023-03-14T11:39:08;9.38;;;4.47;;
75218;SDS011;63801;49.414;19.474;2023-03-14T11:41:15;10.02;;;4.90;;
75218;SDS011;63801;49.414;19.474;2023-03-14T11:43:35;11.98;;;4.80;;
75218;SDS011;63801;49.414;19.474;2023-03-14T11:45:43;17.95;;;6.25;;
75218;SDS011;63801;49.414;19.474;2023-03-14T11:47:44;9.73;;;4.68;;
75218;SDS011;63801;49.414;19.474;2023-03-14T11:49:50;11.80;;;5.60;;
75218;SDS011;63801;49.414;19.474;2023-03-14T11:51:57;17.17;;;6.10;;
75218;SDS011;63801;49.414;19.474;2023-03-14T11:54:03;10.98;;;5.07;;
75218;SDS011;63801;49.414;19.474;2023-03-14T11:56:19;11.05;;;4.05;;
75218;SDS011;63801;49.414;19.474;2023-03-14T11:58:31;7.50;;;3.95;;
75218;SDS011;63801;49.414;19.474;2023-03-14T12:00:38;13.73;;;6.97;;
75218;SDS011;63801;49.414;19.474;2023-03-14T12:02:41;8.73;;;4.28;;
75218;SDS011;63801;49.414;19.474;2023-03-14T12:06:56;9.88;;;5.03;;
75218;SDS011;63801;49.414;19.474;2023-03-14T12:09:02;8.10;;;4.40;;
75218;SDS011;63801;49.414;19.474;2023-03-14T12:13:33;13.25;;;4.32;;
75218;SDS011;63801;49.414;19.474;2023-03-14T12:15:47;12.10;;;5.32;;
75218;SDS011;63801;49.414;19.474;2023-03-14T12:17:58;7.70;;;4.50;;
75218;SDS011;63801;49.414;19.474;2023-03-14T12:22:23;9.88;;;4.28;;
75218;SDS011;63801;49.414;19.474;2023-03-14T12:24:27;12.13;;;4.50;;
75218;SDS011;63801;49.414;19.474;2023-03-14T12:26:43;17.00;;;5.32;;
75218;SDS011;63801;49.414;19.474;2023-03-14T12:31:02;14.00;;;5.47;;
75218;SDS011;63801;49.414;19.474;2023-03-14T12:33:30;14.25;;;5.40;;
75218;SDS011;63801;49.414;19.474;2023-03-14T12:37:44;12.57;;;5.40;;
75218;SDS011;63801;49.414;19.474;2023-03-14T12:40:06;14.55;;;4.78;;
75218;SDS011;63801;49.414;19.474;2023-03-14T12:46:28;9.98;;;4.97;;
75218;SDS011;63801;49.414;19.474;2023-03-14T12:48:29;9.82;;;4.95;;
75218;SDS011;63801;49.414;19.474;2023-03-14T12:55:19;12.60;;;5.82;;
75218;SDS011;63801;49.414;19.474;2023-03-14T12:57:37;17.88;;;5.35;;
75218;SDS011;63801;49.414;19.474;2023-03-14T12:59:52;14.43;;;6.15;;
75218;SDS011;63801;49.414;19.474;2023-03-14T13:01:58;15.48;;;6.90;;
75218;SDS011;63801;49.414;19.474;2023-03-14T13:04:07;12.98;;;5.80;;